Aérodrome :
LOGIN :

S'inscrire | Disclaimer

   EN    FR    IT 

 










Légende :    VFR   VFR Marginal   IFR   IFR Intensif   IFR Très Intensif
Visi : 
Plafond : 
>= 8 km
>= 3000ft
5 à 8 km
1000 à 3000 ft
1500m à 5 km
500 à 1000 ft
800 à 1500m
200 à 500 ft
< 800m
< 200 ft
Symboles :   Orages  Brouillard  Fortes neiges  Fortes précipitations  Vent > 20 kt
SIGMETs :   Divers  Orages  Givrage  Turbulence  Onde Orograph.  Cendres Volcan.






- Altitude de l'aérodrome : 16 ft
- Code IATA : SDR


LEXJ - Santander Cantabria

DERNIER METAR :
  • 201030Z 00000KT CAVOK 13/09 Q1025

METARs EXPIRÉS :
  • 201000Z 00000KT CAVOK 11/08 Q1024
  • 200930Z 16003KT 120V200 CAVOK 09/07 Q1024
  • 200900Z 00000KT CAVOK 09/07 Q1024
  • 200830Z 00000KT CAVOK 08/07 Q1024

TAF TAF LEXJ
Valide du 20 à 09h jusqu'au 21 à 09h UTC


200800Z 2009/2109 21008KT CAVOK TX15/2014Z TN05/2106Z
TEMPO 2011/2016 30010KT
PROB30
TEMPO 2100/2106 3000 -RADZ BR BKN012



MET'MAP, la Météo Aéronautique d'un coup d'oeil ! - Copyright ORBIFLY Décembre 2007 - Disclaimer

ORBIFLY MET'MAP TEAM :

Programmation & Développement : Alexandra Zaïnal
Sur une idée originale de : Baudouin d'Aumeries
Assistance à la programmation : Marc-Olivier Méhu
Soutien technique & logistique : Manuel Goepfert

Contact : metmap@orbifly.com




SOURCES & CREDITS :

   NOAA